createdAt,value
2023-02-25T11:11:57.365Z,804.38
2023-02-25T11:12:57.343Z,641.25
2023-02-25T11:13:57.493Z,658.12
2023-02-25T11:14:57.217Z,703.12
2023-02-25T11:15:57.244Z,793.12
2023-02-25T11:16:57.195Z,871.88
2023-02-25T11:17:57.205Z,900.00
2023-02-25T11:18:57.174Z,961.88
2023-02-25T11:19:57.157Z,691.88
2023-02-25T11:20:57.714Z,573.75
2023-02-25T11:21:57.290Z,523.12
2023-02-25T11:23:49.783Z,545.62
2023-02-25T11:24:49.816Z,568.12
2023-02-25T11:25:50.680Z,590.62
2023-02-25T11:26:49.777Z,652.50
2023-02-25T11:27:49.821Z,703.12
2023-02-25T11:28:49.736Z,843.75
2023-02-25T11:32:37.665Z,500.62
2023-02-25T11:33:37.621Z,461.25
2023-02-25T11:34:37.846Z,483.75
2023-02-25T11:35:37.587Z,534.38
2023-02-25T11:36:39.063Z,568.12
2023-02-25T11:37:41.981Z,624.38
2023-02-25T11:38:47.279Z,939.38
2023-02-25T11:39:37.544Z,1040.62
2023-02-25T11:40:37.521Z,669.38
2023-02-25T11:41:37.520Z,579.38
2023-02-25T11:42:37.509Z,601.88
2023-02-25T11:43:37.525Z,810.00
2023-02-25T11:44:37.476Z,568.12
2023-02-25T11:45:38.754Z,556.88
2023-02-25T11:47:44.126Z,720.00
2023-02-25T11:48:33.733Z,725.62
2023-02-25T11:49:33.558Z,725.62
2023-02-25T11:50:33.549Z,731.25
2023-02-25T11:51:33.580Z,770.62
2023-02-25T11:52:33.521Z,810.00
2023-02-25T11:53:34.357Z,832.50
2023-02-25T11:54:34.170Z,798.75
2023-02-25T11:55:33.960Z,765.00
2023-02-25T11:56:33.483Z,725.62
2023-02-25T11:57:33.467Z,703.12
2023-02-25T11:58:33.497Z,720.00
2023-02-25T11:59:33.487Z,742.50
2023-02-25T12:00:33.448Z,753.75
2023-02-25T12:01:33.450Z,742.50
2023-02-25T12:02:34.551Z,742.50
2023-02-25T12:04:25.449Z,781.88
2023-02-25T12:05:25.465Z,798.75
2023-02-25T12:06:25.706Z,798.75
2023-02-25T12:07:25.391Z,804.38
2023-02-25T12:08:25.362Z,793.12
2023-02-25T12:09:25.353Z,770.62
2023-02-25T12:10:26.066Z,765.00
2023-02-25T12:11:25.814Z,748.12
2023-02-25T12:12:25.305Z,736.88
2023-02-25T12:13:25.372Z,708.75
2023-02-25T12:14:25.280Z,675.00
2023-02-25T12:15:25.299Z,658.12
2023-02-25T12:16:25.624Z,663.75
2023-02-25T12:17:25.268Z,646.88
2023-02-25T12:18:25.288Z,618.75
2023-02-25T12:19:26.445Z,590.62
2023-02-25T12:20:26.135Z,568.12
2023-02-25T12:21:25.657Z,540.00
2023-02-25T12:22:25.250Z,511.88
2023-02-25T12:23:25.182Z,500.62
2023-02-25T12:24:25.200Z,472.50
2023-02-25T12:25:25.208Z,461.25
2023-02-25T12:26:25.151Z,461.25
2023-02-25T12:27:25.165Z,455.62
2023-02-25T12:31:00.113Z,382.50
2023-02-25T12:32:00.163Z,371.25
2023-02-25T12:33:00.613Z,337.50
2023-02-25T12:34:00.820Z,320.62
2023-02-25T12:35:00.021Z,309.38
2023-02-25T12:35:59.970Z,286.88
2023-02-25T12:36:59.984Z,264.38
2023-02-25T12:37:59.947Z,258.75
2023-02-25T12:38:59.922Z,258.75
2023-02-25T12:39:59.906Z,264.38
2023-02-25T12:40:59.895Z,264.38
2023-02-25T12:42:00.179Z,270.00
2023-02-25T12:43:00.928Z,286.88
2023-02-25T12:44:00.121Z,303.75
2023-02-25T12:44:59.873Z,326.25
2023-02-25T12:45:59.895Z,360.00
2023-02-25T12:46:59.844Z,405.00
2023-02-25T12:47:59.834Z,444.38
2023-02-25T12:48:59.807Z,455.62
2023-02-25T12:49:59.796Z,466.88
2023-02-25T12:51:00.340Z,489.38
2023-02-25T12:52:02.109Z,523.12
2023-02-25T12:54:23.578Z,585.00
2023-02-25T12:55:23.659Z,630.00
2023-02-25T12:56:23.506Z,641.25
2023-02-25T12:57:23.457Z,686.25
2023-02-25T12:58:23.470Z,585.00
2023-02-25T12:59:23.442Z,495.00
2023-02-25T13:00:23.423Z,433.12
2023-02-25T13:01:23.781Z,382.50
2023-02-25T13:02:23.425Z,382.50
2023-02-25T13:03:24.612Z,371.25
2023-02-25T13:04:26.146Z,348.75
2023-02-25T13:05:24.966Z,320.62
2023-02-25T13:06:23.381Z,303.75
2023-02-25T13:07:23.352Z,315.00
2023-02-25T13:08:23.372Z,331.88
2023-02-25T13:09:23.322Z,337.50
2023-02-25T13:10:23.351Z,331.88
2023-02-25T13:11:23.625Z,337.50
2023-02-25T13:12:23.916Z,343.12
